createdAt,value
2023-04-09T00:00:45.076Z,66.59
2023-04-09T00:03:13.019Z,66.46
2023-04-09T00:05:41.757Z,66.34
2023-04-09T00:08:09.706Z,66.38
2023-04-09T00:10:37.687Z,66.07
2023-04-09T00:13:06.888Z,66.28
2023-04-09T00:15:34.649Z,66.29
2023-04-09T00:18:02.495Z,66.32
2023-04-09T00:20:30.476Z,66.44
2023-04-09T00:22:58.306Z,66.46
2023-04-09T00:25:26.027Z,66.60
2023-04-09T00:27:54.011Z,66.38
2023-04-09T00:30:23.292Z,66.40
2023-04-09T00:32:51.174Z,66.19
2023-04-09T00:35:19.118Z,66.04
2023-04-09T00:37:46.921Z,66.18
2023-04-09T00:40:15.079Z,65.91
2023-04-09T00:42:42.892Z,66.14
2023-04-09T00:45:11.422Z,66.30
2023-04-09T00:47:40.634Z,66.39
2023-04-09T00:50:09.300Z,66.37
2023-04-09T00:52:37.433Z,66.56
2023-04-09T00:55:06.472Z,66.19
2023-04-09T00:57:34.375Z,66.20
2023-04-09T01:00:02.578Z,65.91
2023-04-09T01:02:31.029Z,65.77
2023-04-09T01:05:04.891Z,65.85
2023-04-09T01:07:41.537Z,66.07
2023-04-09T01:10:15.554Z,66.22
2023-04-09T01:12:49.814Z,66.17
2023-04-09T01:15:23.618Z,66.17
2023-04-09T01:17:54.557Z,66.36
2023-04-09T01:20:30.446Z,66.40
2023-04-09T01:23:02.945Z,66.52
2023-04-09T01:25:45.494Z,66.60
2023-04-09T01:28:19.001Z,66.60
2023-04-09T01:30:50.518Z,66.53
2023-04-09T01:33:19.965Z,66.54
2023-04-09T01:35:48.764Z,66.34
2023-04-09T01:38:19.733Z,66.55
2023-04-09T01:40:47.610Z,66.43
2023-04-09T01:43:16.955Z,66.54
2023-04-09T01:45:46.635Z,66.21
2023-04-09T01:48:14.945Z,66.26
2023-04-09T01:50:43.030Z,66.24
2023-04-09T01:53:11.104Z,66.65
2023-04-09T01:55:39.022Z,66.67
2023-04-09T01:58:06.795Z,66.50
2023-04-09T02:00:37.865Z,66.19
2023-04-09T02:03:08.265Z,66.76
2023-04-09T02:05:39.157Z,66.33
2023-04-09T02:08:09.507Z,66.74
2023-04-09T02:10:38.400Z,66.88
2023-04-09T02:13:07.253Z,66.95
2023-04-09T02:15:37.919Z,67.37
2023-04-09T02:18:05.784Z,67.08
2023-04-09T02:20:33.536Z,67.18
2023-04-09T02:23:01.264Z,67.54
2023-04-09T02:25:29.071Z,67.35
2023-04-09T02:27:56.777Z,67.73
2023-04-09T02:30:24.800Z,68.04
2023-04-09T02:32:53.945Z,67.74
2023-04-09T02:35:21.783Z,67.94
2023-04-09T02:37:49.531Z,67.92
2023-04-09T02:40:17.326Z,67.79
2023-04-09T02:42:45.095Z,68.63
2023-04-09T02:45:12.821Z,68.19
2023-04-09T02:47:40.634Z,68.20
2023-04-09T02:50:10.324Z,68.77
2023-04-09T02:52:38.181Z,68.59
2023-04-09T02:55:06.685Z,68.95
2023-04-09T02:57:34.581Z,69.47
2023-04-09T03:00:02.351Z,69.16
2023-04-09T03:02:30.230Z,68.97
2023-04-09T03:04:58.045Z,69.57
2023-04-09T03:07:27.168Z,69.59
2023-04-09T03:09:54.949Z,69.45
2023-04-09T03:12:22.717Z,69.69
2023-04-09T03:14:50.559Z,69.08
2023-04-09T03:17:18.304Z,69.58
2023-04-09T03:19:46.176Z,69.77
2023-04-09T03:22:13.879Z,69.35
2023-04-09T03:24:43.060Z,69.67
2023-04-09T03:27:10.843Z,70.31
2023-04-09T03:29:38.614Z,69.95
2023-04-09T03:32:06.652Z,70.47
2023-04-09T03:34:34.477Z,70.12
2023-04-09T03:37:02.472Z,69.82
2023-04-09T03:39:31.024Z,70.63
2023-04-09T03:42:00.210Z,70.75
2023-04-09T03:44:28.004Z,70.95
2023-04-09T03:46:55.858Z,71.01
2023-04-09T03:49:23.771Z,70.64
2023-04-09T03:51:51.640Z,70.98
2023-04-09T03:54:19.387Z,71.29
2023-04-09T03:56:47.199Z,71.81
2023-04-09T03:59:16.334Z,71.25
2023-04-09T04:01:44.208Z,71.82
2023-04-09T04:04:12.117Z,71.30
2023-04-09T04:06:39.942Z,71.80
2023-04-09T04:09:07.724Z,72.86
2023-04-09T04:11:35.572Z,71.83
2023-04-09T04:14:03.338Z,72.18
2023-04-09T04:16:32.586Z,72.55
2023-04-09T04:19:00.425Z,72.86
2023-04-09T04:21:28.267Z,72.33
2023-04-09T04:23:56.029Z,72.84
2023-04-09T04:26:23.808Z,73.16
2023-04-09T04:28:51.750Z,73.17
2023-04-09T04:31:19.720Z,73.74
2023-04-09T04:33:48.869Z,73.88
2023-04-09T04:36:16.637Z,73.37
2023-04-09T04:38:44.402Z,73.49
2023-04-09T04:41:12.523Z,73.76
2023-04-09T04:43:41.470Z,73.79
2023-04-09T04:46:09.413Z,74.72
2023-04-09T04:48:37.177Z,74.56
2023-04-09T04:51:06.473Z,74.93
2023-04-09T04:53:34.260Z,74.82
2023-04-09T04:56:02.063Z,74.96
2023-04-09T04:58:30.862Z,75.72
2023-04-09T05:00:58.765Z,75.62
2023-04-09T05:03:27.671Z,75.59
2023-04-09T05:05:55.617Z,75.70
2023-04-09T05:08:24.760Z,76.31
2023-04-09T05:10:55.995Z,76.39
2023-04-09T05:13:24.025Z,76.74
2023-04-09T05:15:51.815Z,76.30
2023-04-09T05:18:19.574Z,76.46
2023-04-09T05:20:47.384Z,76.25
2023-04-09T05:23:15.100Z,76.46
2023-04-09T05:25:44.259Z,76.93
2023-04-09T05:28:12.301Z,77.01
2023-04-09T05:30:40.106Z,76.73
2023-04-09T05:33:07.859Z,77.07
2023-04-09T05:35:39.820Z,76.88
2023-04-09T05:38:07.752Z,76.99
2023-04-09T05:40:35.565Z,76.33
2023-04-09T05:43:04.709Z,76.52
2023-04-09T05:45:32.454Z,76.68
2023-04-09T05:48:00.277Z,76.99
2023-04-09T05:50:28.066Z,76.16
2023-04-09T05:52:55.883Z,75.95
2023-04-09T05:55:24.330Z,76.20
2023-04-09T05:57:53.950Z,75.76
2023-04-09T06:00:23.625Z,75.79
2023-04-09T06:02:52.027Z,75.76
2023-04-09T06:05:19.809Z,75.21
2023-04-09T06:07:48.194Z,75.34
2023-04-09T06:10:16.143Z,74.87
2023-04-09T06:12:43.923Z,74.52
2023-04-09T06:15:12.618Z,74.04
2023-04-09T06:17:42.000Z,73.89
2023-04-09T06:20:10.996Z,73.55
2023-04-09T06:22:38.908Z,73.51
2023-04-09T06:25:08.010Z,73.45
2023-04-09T06:27:36.382Z,73.18
2023-04-09T06:30:04.178Z,73.01
2023-04-09T06:32:35.531Z,72.84
2023-04-09T06:35:11.073Z,72.27
2023-04-09T06:37:39.155Z,71.13
2023-04-09T06:40:08.468Z,71.51
2023-04-09T06:42:36.555Z,71.16
2023-04-09T06:45:08.560Z,70.89
2023-04-09T06:47:36.854Z,70.58
2023-04-09T06:50:05.754Z,70.18
2023-04-09T06:52:35.417Z,69.92
2023-04-09T06:55:03.198Z,69.76
2023-04-09T06:57:31.224Z,69.51
2023-04-09T06:59:59.464Z,69.75
2023-04-09T07:02:28.185Z,69.51
2023-04-09T07:04:56.177Z,69.69
2023-04-09T07:07:25.858Z,69.89
2023-04-09T07:09:55.619Z,69.76
2023-04-09T07:12:30.028Z,69.63
2023-04-09T07:14:59.356Z,69.11
2023-04-09T07:17:27.209Z,68.22
2023-04-09T07:19:56.037Z,68.19
2023-04-09T07:22:24.154Z,67.66
2023-04-09T07:24:54.469Z,67.44
2023-04-09T07:27:24.684Z,67.07
2023-04-09T07:29:52.561Z,66.97
2023-04-09T07:32:20.535Z,66.50
2023-04-09T07:34:48.600Z,66.50
2023-04-09T07:37:17.086Z,65.84
2023-04-09T07:39:45.188Z,65.97
2023-04-09T07:42:12.912Z,65.73
2023-04-09T07:44:42.179Z,66.17
2023-04-09T07:47:10.616Z,66.19
2023-04-09T07:49:39.174Z,65.52
2023-04-09T07:52:07.758Z,65.35
2023-04-09T07:54:35.929Z,65.62
2023-04-09T07:57:04.706Z,64.93
2023-04-09T07:59:32.889Z,64.84
2023-04-09T08:02:02.169Z,65.50
2023-04-09T08:04:30.723Z,65.81
2023-04-09T08:06:58.558Z,66.40
2023-04-09T08:09:26.305Z,65.46
2023-04-09T08:11:54.143Z,64.79
2023-04-09T08:14:22.002Z,64.44
2023-04-09T08:16:50.633Z,63.54
2023-04-09T08:19:20.430Z,62.55
2023-04-09T08:21:49.652Z,63.55
2023-04-09T08:24:18.339Z,63.47
2023-04-09T08:26:46.366Z,64.32
2023-04-09T08:29:16.451Z,64.63
2023-04-09T08:31:44.390Z,63.94
2023-04-09T08:34:13.086Z,63.62
2023-04-09T08:36:42.251Z,62.48
2023-04-09T08:39:10.032Z,62.81
2023-04-09T08:41:41.879Z,62.74
2023-04-09T08:44:09.817Z,61.30
2023-04-09T08:46:37.819Z,60.73
2023-04-09T08:49:05.682Z,61.01
2023-04-09T08:51:33.426Z,62.02
2023-04-09T08:54:04.752Z,61.41
2023-04-09T08:56:33.632Z,60.93
2023-04-09T08:59:01.376Z,60.22
2023-04-09T09:01:31.470Z,58.31
2023-04-09T09:04:00.919Z,59.49
2023-04-09T09:06:32.020Z,59.66
2023-04-09T09:09:08.371Z,60.24
2023-04-09T09:11:37.244Z,59.49
2023-04-09T09:14:06.087Z,60.08
2023-04-09T09:16:35.913Z,60.27
2023-04-09T09:19:04.160Z,60.49
2023-04-09T09:21:31.955Z,58.38
2023-04-09T09:23:59.742Z,57.56
2023-04-09T09:26:30.116Z,59.01
2023-04-09T09:28:59.454Z,58.50
2023-04-09T09:31:27.631Z,58.32
2023-04-09T09:33:55.749Z,57.75
2023-04-09T09:36:34.068Z,58.03
2023-04-09T09:39:05.368Z,58.39
2023-04-09T09:41:34.466Z,57.60
2023-04-09T09:44:03.511Z,58.57
2023-04-09T09:46:33.747Z,56.92
2023-04-09T09:49:01.717Z,56.63
2023-04-09T09:51:30.041Z,55.65
2023-04-09T09:53:58.420Z,56.73
2023-04-09T09:56:32.383Z,55.66
2023-04-09T09:59:08.518Z,54.22
2023-04-09T10:01:36.910Z,53.51
2023-04-09T10:04:07.423Z,54.72
2023-04-09T10:06:35.691Z,53.23
2023-04-09T10:09:06.436Z,53.75
2023-04-09T10:11:34.913Z,53.51
2023-04-09T10:14:05.268Z,52.91
2023-04-09T10:16:34.789Z,51.87
2023-04-09T10:19:03.419Z,50.87
2023-04-09T10:21:37.801Z,50.77
2023-04-09T10:24:07.995Z,50.38
2023-04-09T10:26:37.002Z,49.21
2023-04-09T10:29:13.961Z,49.00
2023-04-09T10:31:55.984Z,47.19
2023-04-09T10:34:24.891Z,48.36
2023-04-09T10:36:54.641Z,49.40
2023-04-09T10:39:22.594Z,50.20
2023-04-09T10:41:51.042Z,50.18
2023-04-09T10:44:23.354Z,49.04
2023-04-09T10:46:51.523Z,49.83
2023-04-09T10:49:20.986Z,48.03
2023-04-09T10:51:56.126Z,49.15
2023-04-09T10:54:47.197Z,48.84
2023-04-09T10:57:20.081Z,43.75
2023-04-09T10:59:50.882Z,45.21
2023-04-09T11:02:39.210Z,46.82
2023-04-09T11:05:13.315Z,46.21
2023-04-09T11:07:42.519Z,48.30
2023-04-09T11:10:10.716Z,45.68
2023-04-09T11:12:38.442Z,47.68
2023-04-09T11:15:17.023Z,48.45
2023-04-09T11:17:45.022Z,49.84
2023-04-09T11:20:12.858Z,49.94
2023-04-09T11:22:40.618Z,47.04
2023-04-09T11:25:09.072Z,44.40
2023-04-09T11:27:38.950Z,46.20
2023-04-09T11:30:09.596Z,45.22
2023-04-09T11:32:37.449Z,47.29
2023-04-09T11:35:05.790Z,45.52
2023-04-09T11:37:33.587Z,45.76
2023-04-09T11:40:01.348Z,46.52
2023-04-09T11:42:32.158Z,46.17
2023-04-09T11:45:00.943Z,45.14
2023-04-09T11:47:30.361Z,45.28
2023-04-09T11:49:58.189Z,44.49
2023-04-09T11:52:27.954Z,44.18
2023-04-09T11:54:55.713Z,44.11
2023-04-09T11:57:23.554Z,42.66
2023-04-09T11:59:51.432Z,41.77
2023-04-09T12:02:19.760Z,43.10
2023-04-09T12:04:52.414Z,43.78
2023-04-09T12:07:20.274Z,44.38
2023-04-09T12:09:49.880Z,43.13
2023-04-09T12:12:21.318Z,43.15
2023-04-09T12:14:51.917Z,44.14
2023-04-09T12:17:22.100Z,44.44
2023-04-09T12:19:50.080Z,44.40
2023-04-09T12:22:19.176Z,43.03
2023-04-09T12:24:46.996Z,41.90
2023-04-09T12:27:14.728Z,41.60
2023-04-09T12:29:42.531Z,39.68
2023-04-09T12:32:10.412Z,39.86
2023-04-09T12:34:38.312Z,40.82
2023-04-09T12:37:06.026Z,41.04
2023-04-09T12:39:35.128Z,41.70
2023-04-09T12:42:03.030Z,43.48
2023-04-09T12:44:33.112Z,43.19
2023-04-09T12:47:01.105Z,42.63
2023-04-09T12:49:29.479Z,42.58
2023-04-09T12:51:57.242Z,43.62
2023-04-09T12:54:25.055Z,42.47
2023-04-09T12:56:54.193Z,42.34
2023-04-09T12:59:21.933Z,42.83
2023-04-09T13:01:49.755Z,42.57
2023-04-09T13:04:17.686Z,42.68
2023-04-09T13:06:45.547Z,43.93
2023-04-09T13:09:13.301Z,44.14
2023-04-09T13:11:41.336Z,46.11
2023-04-09T13:14:14.463Z,45.41
2023-04-09T13:16:42.739Z,45.22
2023-04-09T13:19:11.225Z,45.33
2023-04-09T13:21:38.969Z,43.88
2023-04-09T13:24:07.060Z,42.95
2023-04-09T13:26:34.799Z,43.44
2023-04-09T13:29:02.908Z,42.95
2023-04-09T13:31:32.193Z,42.51
2023-04-09T13:34:00.072Z,42.99
2023-04-09T13:36:27.989Z,44.23
2023-04-09T13:38:56.336Z,43.73
2023-04-09T13:41:27.820Z,44.69
2023-04-09T13:43:56.108Z,44.23
2023-04-09T13:46:23.950Z,43.87
2023-04-09T13:48:54.881Z,44.14
2023-04-09T13:51:23.049Z,43.78
2023-04-09T13:53:50.895Z,43.72
2023-04-09T13:56:18.702Z,42.24
2023-04-09T13:58:46.837Z,40.75
2023-04-09T14:01:14.971Z,42.68
2023-04-09T14:03:43.231Z,42.38
2023-04-09T14:06:13.545Z,42.01
2023-04-09T14:08:41.324Z,42.59
2023-04-09T14:11:10.999Z,43.04
2023-04-09T14:13:38.741Z,42.78
2023-04-09T14:16:07.891Z,41.67
2023-04-09T14:18:35.767Z,40.68
2023-04-09T14:21:03.587Z,40.79
2023-04-09T14:23:32.767Z,38.98
2023-04-09T14:26:00.538Z,39.10
2023-04-09T14:28:28.361Z,40.75
2023-04-09T14:30:56.567Z,40.30
2023-04-09T14:33:24.399Z,38.38
2023-04-09T14:35:52.306Z,39.10
2023-04-09T14:38:20.148Z,38.08
2023-04-09T14:40:49.252Z,38.08
2023-04-09T14:43:16.997Z,37.56
2023-04-09T14:45:44.832Z,36.98
2023-04-09T14:48:12.662Z,36.76
2023-04-09T14:50:41.233Z,35.52
2023-04-09T14:53:09.011Z,36.60
2023-04-09T14:55:37.002Z,36.45
2023-04-09T14:58:08.125Z,36.83
2023-04-09T15:00:36.193Z,35.58
2023-04-09T15:03:04.180Z,34.90
2023-04-09T15:05:32.176Z,35.24
2023-04-09T15:07:59.973Z,35.12
2023-04-09T15:10:27.783Z,35.10
2023-04-09T15:12:55.565Z,34.98
2023-04-09T15:15:24.843Z,36.14
2023-04-09T15:17:52.638Z,36.57
2023-04-09T15:20:20.462Z,36.49
2023-04-09T15:22:48.318Z,36.49
2023-04-09T15:25:16.350Z,35.72
2023-04-09T15:27:46.512Z,36.01
2023-04-09T15:30:14.284Z,36.14
2023-04-09T15:32:43.420Z,35.77
2023-04-09T15:35:11.416Z,35.85
2023-04-09T15:37:39.150Z,35.44
2023-04-09T15:40:08.065Z,36.04
2023-04-09T15:42:35.857Z,35.69
2023-04-09T15:45:03.771Z,35.34
2023-04-09T15:47:33.258Z,35.17
2023-04-09T15:50:02.664Z,35.07
2023-04-09T15:52:30.483Z,35.96
2023-04-09T15:54:58.230Z,35.84
2023-04-09T15:57:25.977Z,36.42
2023-04-09T15:59:53.821Z,35.13
2023-04-09T16:02:22.688Z,35.77
2023-04-09T16:04:51.285Z,35.48
2023-04-09T16:07:20.528Z,36.28
2023-04-09T16:09:48.317Z,36.15
2023-04-09T16:12:16.117Z,37.46
2023-04-09T16:14:44.607Z,36.83
2023-04-09T16:17:12.362Z,36.07
2023-04-09T16:19:40.137Z,36.73
2023-04-09T16:22:08.558Z,36.04
2023-04-09T16:24:37.655Z,35.90
2023-04-09T16:27:05.457Z,36.02
2023-04-09T16:29:33.288Z,36.86
2023-04-09T16:32:01.179Z,36.61
2023-04-09T16:34:31.449Z,36.41
2023-04-09T16:36:59.302Z,35.99
2023-04-09T16:39:27.033Z,36.46
2023-04-09T16:41:56.662Z,37.00
2023-04-09T16:44:24.544Z,36.88
2023-04-09T16:46:52.360Z,36.86
2023-04-09T16:49:20.142Z,37.14
2023-04-09T16:51:47.967Z,37.39
2023-04-09T16:54:15.819Z,37.16
2023-04-09T16:56:43.619Z,37.14
2023-04-09T16:59:13.526Z,36.89
2023-04-09T17:01:41.369Z,37.09
2023-04-09T17:04:09.292Z,36.88
2023-04-09T17:06:37.100Z,37.02
2023-04-09T17:09:06.656Z,37.09
2023-04-09T17:11:34.554Z,38.30
2023-04-09T17:14:02.360Z,37.95
2023-04-09T17:16:31.604Z,37.70
2023-04-09T17:18:59.414Z,38.55
2023-04-09T17:21:27.465Z,38.62
2023-04-09T17:23:55.313Z,38.72
2023-04-09T17:26:23.207Z,38.03
2023-04-09T17:28:51.179Z,38.33
2023-04-09T17:31:19.280Z,38.00
2023-04-09T17:33:48.745Z,39.06
2023-04-09T17:36:18.598Z,38.42
2023-04-09T17:38:46.447Z,39.52
2023-04-09T17:41:14.401Z,38.75
2023-04-09T17:43:42.172Z,39.32
2023-04-09T17:46:10.044Z,39.07
2023-04-09T17:48:38.089Z,39.47
2023-04-09T17:51:08.264Z,41.30
2023-04-09T17:53:36.094Z,41.52
2023-04-09T17:56:04.271Z,41.63
2023-04-09T17:58:32.135Z,42.88
2023-04-09T18:00:59.990Z,42.63
2023-04-09T18:03:28.051Z,43.48
2023-04-09T18:05:56.261Z,43.45
2023-04-09T18:08:25.662Z,44.09
2023-04-09T18:11:04.963Z,44.74
2023-04-09T18:13:39.020Z,44.89
2023-04-09T18:16:10.145Z,45.44
2023-04-09T18:18:37.936Z,45.84
2023-04-09T18:21:06.845Z,46.16
2023-04-09T18:23:36.168Z,46.51
2023-04-09T18:26:03.955Z,46.46
2023-04-09T18:28:31.769Z,46.66
2023-04-09T18:30:59.601Z,47.07
2023-04-09T18:33:27.564Z,47.09
2023-04-09T18:35:55.365Z,47.50
2023-04-09T18:38:23.265Z,47.95
2023-04-09T18:40:52.444Z,47.93
2023-04-09T18:43:20.353Z,48.05
2023-04-09T18:45:49.494Z,48.67
2023-04-09T18:48:17.275Z,48.61
2023-04-09T18:50:45.041Z,48.81
2023-04-09T18:53:12.974Z,48.83
2023-04-09T18:55:40.710Z,49.68
2023-04-09T18:58:12.823Z,49.68
2023-04-09T19:00:40.910Z,49.59
2023-04-09T19:03:09.284Z,49.54
2023-04-09T19:05:37.464Z,49.59
2023-04-09T19:08:05.654Z,49.56
2023-04-09T19:10:33.496Z,50.10
2023-04-09T19:13:01.257Z,49.59
2023-04-09T19:15:30.536Z,49.69
2023-04-09T19:17:58.461Z,50.36
2023-04-09T19:20:26.325Z,50.31
2023-04-09T19:22:56.583Z,50.42
2023-04-09T19:25:24.537Z,50.67
2023-04-09T19:27:54.197Z,50.45
2023-04-09T19:30:22.080Z,51.06
2023-04-09T19:32:51.442Z,51.05
2023-04-09T19:35:19.193Z,51.16
2023-04-09T19:37:47.079Z,51.46
2023-04-09T19:40:16.986Z,51.55
2023-04-09T19:42:44.939Z,51.12
2023-04-09T19:45:13.547Z,51.17
2023-04-09T19:47:41.833Z,51.83
2023-04-09T19:50:11.982Z,52.24
2023-04-09T19:52:41.442Z,52.28
2023-04-09T19:55:10.646Z,52.13
2023-04-09T19:57:38.968Z,52.58
2023-04-09T20:00:08.662Z,52.33
2023-04-09T20:02:37.691Z,52.99
2023-04-09T20:05:06.137Z,52.66
2023-04-09T20:07:35.351Z,52.82
2023-04-09T20:10:03.885Z,53.21
2023-04-09T20:12:32.032Z,53.52
2023-04-09T20:15:01.233Z,53.24
2023-04-09T20:17:29.023Z,53.00
2023-04-09T20:19:56.795Z,53.18
2023-04-09T20:22:24.677Z,53.81
2023-04-09T20:24:55.470Z,53.29
2023-04-09T20:27:23.499Z,53.66
2023-04-09T20:29:51.666Z,53.76
2023-04-09T20:32:19.885Z,53.72
2023-04-09T20:34:47.795Z,53.31
2023-04-09T20:37:15.602Z,53.89
2023-04-09T20:39:43.410Z,53.42
2023-04-09T20:42:12.554Z,53.98
2023-04-09T20:44:40.302Z,53.43
2023-04-09T20:47:08.225Z,53.43
2023-04-09T20:49:36.089Z,53.18
2023-04-09T20:52:03.902Z,53.20
2023-04-09T20:54:31.695Z,52.99
2023-04-09T20:57:00.225Z,52.80
2023-04-09T20:59:29.395Z,53.09
2023-04-09T21:01:57.324Z,52.40
2023-04-09T21:04:25.550Z,52.73
2023-04-09T21:06:53.423Z,53.11
2023-04-09T21:09:21.292Z,52.97
2023-04-09T21:11:49.077Z,53.26
2023-04-09T21:14:16.910Z,53.50
2023-04-09T21:16:46.180Z,53.13
2023-04-09T21:19:14.019Z,53.30
2023-04-09T21:21:41.781Z,53.16
2023-04-09T21:24:09.552Z,53.25
2023-04-09T21:26:50.057Z,53.29
2023-04-09T21:29:19.806Z,53.24
2023-04-09T21:31:49.044Z,53.01
2023-04-09T21:34:17.182Z,53.23
2023-04-09T21:36:46.342Z,53.38
2023-04-09T21:39:14.152Z,53.79
2023-04-09T21:41:41.888Z,54.09
2023-04-09T21:44:09.710Z,53.88
2023-04-09T21:46:38.022Z,54.13
2023-04-09T21:49:07.204Z,54.12
2023-04-09T21:51:34.969Z,53.88
2023-04-09T21:54:04.204Z,54.22
2023-04-09T21:56:32.020Z,54.53
2023-04-09T21:59:00.811Z,54.65
2023-04-09T22:01:30.434Z,54.28
2023-04-09T22:03:58.344Z,54.46
2023-04-09T22:06:28.820Z,54.20
2023-04-09T22:08:57.994Z,54.36
2023-04-09T22:11:28.277Z,54.46
2023-04-09T22:13:56.740Z,54.89
2023-04-09T22:16:25.222Z,54.92
2023-04-09T22:18:54.846Z,54.75
2023-04-09T22:21:23.079Z,54.55
2023-04-09T22:23:52.452Z,54.87
2023-04-09T22:26:21.567Z,54.70
2023-04-09T22:28:50.360Z,54.78
2023-04-09T22:31:18.472Z,55.24
2023-04-09T22:33:46.582Z,54.70
2023-04-09T22:36:14.401Z,55.04
2023-04-09T22:38:42.833Z,54.70
2023-04-09T22:41:12.443Z,54.65
2023-04-09T22:43:40.203Z,54.64
2023-04-09T22:46:08.125Z,54.75
2023-04-09T22:48:43.840Z,55.02
2023-04-09T22:51:12.839Z,54.84
2023-04-09T22:53:41.299Z,54.96
2023-04-09T22:56:09.684Z,54.83
2023-04-09T22:58:38.966Z,54.81
2023-04-09T23:01:07.545Z,54.75
2023-04-09T23:03:35.719Z,54.90
2023-04-09T23:06:03.522Z,55.26
2023-04-09T23:08:31.593Z,55.12
2023-04-09T23:10:59.695Z,55.43
2023-04-09T23:13:27.432Z,55.66
2023-04-09T23:15:56.655Z,55.83
2023-04-09T23:18:24.725Z,55.79
2023-04-09T23:20:52.517Z,55.76
2023-04-09T23:23:20.679Z,55.53
2023-04-09T23:25:48.490Z,55.80
2023-04-09T23:28:16.586Z,56.07
2023-04-09T23:30:45.512Z,55.71
2023-04-09T23:33:15.074Z,55.41
2023-04-09T23:35:42.802Z,55.53
2023-04-09T23:38:11.478Z,55.47
2023-04-09T23:40:39.653Z,55.36
2023-04-09T23:43:07.552Z,55.66
2023-04-09T23:45:35.419Z,55.70
2023-04-09T23:48:04.720Z,55.80
2023-04-09T23:50:33.902Z,56.13
2023-04-09T23:53:03.974Z,56.31
2023-04-09T23:55:33.352Z,56.29
2023-04-09T23:58:01.663Z,56.75
